Time;durP1;ratioP1;P1;durP2;ratioP2;P2;SDS_P1;SDS_P2;PMS_P1;PMS_P2;Temp;Humidity;BMP_temperature;BMP_pressure;BME280_temperature;BME280_humidity;BME280_pressure;Samples;Min_cycle;Max_cycle;Signal;HPM_P1;HPM_P2
2023/08/28 00:00:10;;;;;;;8.80;4.50;;;;;;;;;;4975419;28;20438;-73
2023/08/28 00:02:36;;;;;;;8.37;4.90;;;;;;;;;;4975609;28;20892;-73
2023/08/28 00:05:02;;;;;;;7.60;4.00;;;;;;;;;;4975306;28;20447;-73
2023/08/28 00:07:28;;;;;;;7.20;3.77;;;;;;;;;;4975179;28;20483;-73
2023/08/28 00:09:54;;;;;;;10.20;5.00;;;;;;;;;;4959675;28;20428;-73
2023/08/28 00:12:20;;;;;;;7.43;4.37;;;;;;;;;;4955480;29;20424;-73
2023/08/28 00:14:46;;;;;;;7.00;4.00;;;;;;;;;;4956422;29;20912;-73
2023/08/28 00:17:12;;;;;;;10.37;5.53;;;;;;;;;;4955789;29;20783;-72
2023/08/28 00:19:39;;;;;;;5.97;4.10;;;;;;;;;;4967349;28;20432;-72
2023/08/28 00:22:05;;;;;;;9.23;4.80;;;;;;;;;;4975034;28;21059;-72
2023/08/28 00:24:31;;;;;;;8.37;5.10;;;;;;;;;;4974721;28;20404;-72
2023/08/28 00:26:57;;;;;;;10.80;5.93;;;;;;;;;;4974367;28;20463;-72
2023/08/28 00:29:23;;;;;;;6.27;4.47;;;;;;;;;;4974103;28;20439;-73
2023/08/28 00:31:49;;;;;;;11.93;3.87;;;;;;;;;;4974308;28;20511;-72
2023/08/28 00:34:15;;;;;;;5.70;3.73;;;;;;;;;;4974312;28;20423;-72
2023/08/28 00:36:42;;;;;;;8.60;4.77;;;;;;;;;;4974268;28;20506;-72
2023/08/28 00:39:08;;;;;;;4.67;3.57;;;;;;;;;;4974653;28;20463;-72
2023/08/28 00:41:36;;;;;;;5.80;3.80;;;;;;;;;;4974587;28;20476;-72
2023/08/28 00:44:02;;;;;;;5.60;4.07;;;;;;;;;;4975070;28;20443;-72
2023/08/28 00:46:28;;;;;;;6.87;4.97;;;;;;;;;;4973298;28;20829;-72
2023/08/28 00:48:54;;;;;;;8.43;4.27;;;;;;;;;;4974130;28;20925;-73
2023/08/28 00:51:20;;;;;;;7.77;4.17;;;;;;;;;;4974435;28;20420;-72
2023/08/28 00:53:46;;;;;;;14.30;4.33;;;;;;;;;;4974183;28;20650;-71
2023/08/28 00:56:12;;;;;;;7.73;3.97;;;;;;;;;;4974241;28;20816;-72
2023/08/28 00:58:38;;;;;;;7.50;4.93;;;;;;;;;;4973696;28;20428;-71
2023/08/28 01:01:04;;;;;;;7.43;5.00;;;;;;;;;;4974064;28;20416;-71
2023/08/28 01:03:30;;;;;;;11.00;4.80;;;;;;;;;;4974146;28;20435;-71
2023/08/28 01:05:59;;;;;;;11.30;5.20;;;;;;;;;;4974008;28;20423;-72
2023/08/28 01:08:39;;;;;;;5.40;4.57;;;;;;;;;;4973680;28;20423;-72
2023/08/28 01:11:10;;;;;;;6.00;3.93;;;;;;;;;;4972258;28;20419;-71
2023/08/28 01:13:41;;;;;;;8.57;4.13;;;;;;;;;;4975300;28;20507;-71
2023/08/28 01:16:07;;;;;;;6.83;4.30;;;;;;;;;;4974226;28;20427;-72
2023/08/28 01:18:34;;;;;;;6.80;4.30;;;;;;;;;;4973598;28;20422;-72
2023/08/28 01:21:00;;;;;;;5.40;3.77;;;;;;;;;;4973811;28;20420;-72
2023/08/28 01:23:43;;;;;;;11.93;4.83;;;;;;;;;;4979592;28;20455;-71
2023/08/28 01:26:09;;;;;;;5.23;4.20;;;;;;;;;;4979768;28;20514;-72
2023/08/28 01:28:35;;;;;;;6.30;4.07;;;;;;;;;;4976707;28;20945;-72
2023/08/28 01:31:04;;;;;;;7.57;4.13;;;;;;;;;;4960922;28;20427;-72
2023/08/28 01:33:31;;;;;;;10.97;5.03;;;;;;;;;;4953476;28;20456;-72
2023/08/28 01:36:10;;;;;;;8.63;4.97;;;;;;;;;;4954547;29;20420;-72
2023/08/28 01:38:39;;;;;;;10.37;5.97;;;;;;;;;;4965467;28;20416;-72
2023/08/28 01:41:08;;;;;;;13.70;5.70;;;;;;;;;;4973385;28;20940;-72
2023/08/28 01:44:03;;;;;;;7.03;5.30;;;;;;;;;;4973638;28;20428;-72
2023/08/28 01:46:31;;;;;;;12.73;5.43;;;;;;;;;;4973260;28;20467;-71
2023/08/28 01:48:57;;;;;;;7.87;4.40;;;;;;;;;;4977172;28;20434;-72
2023/08/28 01:51:23;;;;;;;7.60;5.33;;;;;;;;;;4981047;28;20416;-71
2023/08/28 01:53:50;;;;;;;9.17;5.23;;;;;;;;;;4981208;28;20443;-71
2023/08/28 01:56:16;;;;;;;13.10;5.90;;;;;;;;;;4980709;28;20458;-71
2023/08/28 01:58:46;;;;;;;6.67;4.70;;;;;;;;;;4978586;28;20510;-71
2023/08/28 02:01:12;;;;;;;8.37;5.50;;;;;;;;;;4980686;28;20412;-71
2023/08/28 02:03:39;;;;;;;6.80;4.73;;;;;;;;;;4979052;28;20929;-72
2023/08/28 02:06:08;;;;;;;9.40;5.43;;;;;;;;;;4977531;28;20473;-72
2023/08/28 02:08:34;;;;;;;11.53;5.40;;;;;;;;;;4976447;28;20471;-72
2023/08/28 02:11:01;;;;;;;8.63;5.77;;;;;;;;;;4977270;28;20411;-72
2023/08/28 02:13:27;;;;;;;7.20;4.70;;;;;;;;;;4977143;28;20430;-72
2023/08/28 02:15:53;;;;;;;7.37;4.53;;;;;;;;;;4977531;28;20407;-72
2023/08/28 02:18:19;;;;;;;8.63;4.40;;;;;;;;;;4976744;28;20506;-72
2023/08/28 02:20:45;;;;;;;8.87;4.63;;;;;;;;;;4977397;28;20439;-71
2023/08/28 02:23:11;;;;;;;9.40;5.80;;;;;;;;;;4975499;28;20517;-71
2023/08/28 02:25:41;;;;;;;6.20;4.60;;;;;;;;;;4977116;28;20440;-71
2023/08/28 02:28:07;;;;;;;6.23;4.57;;;;;;;;;;4975440;28;20781;-71
2023/08/28 02:30:33;;;;;;;6.73;4.20;;;;;;;;;;4976821;28;20774;-71
2023/08/28 02:32:59;;;;;;;8.63;4.50;;;;;;;;;;4976924;28;20442;-71
2023/08/28 02:35:25;;;;;;;13.50;4.30;;;;;;;;;;4979031;28;20423;-71
2023/08/28 02:37:51;;;;;;;11.70;5.17;;;;;;;;;;4979692;28;20478;-71
2023/08/28 02:40:17;;;;;;;9.80;5.17;;;;;;;;;;4980136;28;20415;-71
2023/08/28 02:42:43;;;;;;;5.00;3.90;;;;;;;;;;4979371;28;20436;-71
2023/08/28 02:45:09;;;;;;;9.70;5.80;;;;;;;;;;4980558;28;20434;-71
2023/08/28 02:47:35;;;;;;;10.30;5.67;;;;;;;;;;4979896;28;20836;-71
2023/08/28 02:50:01;;;;;;;9.00;4.43;;;;;;;;;;4980480;28;20725;-71
2023/08/28 02:52:27;;;;;;;8.80;4.30;;;;;;;;;;4979498;28;20439;-71
2023/08/28 02:54:53;;;;;;;8.07;4.63;;;;;;;;;;4978678;28;20442;-71
2023/08/28 02:57:19;;;;;;;16.60;5.50;;;;;;;;;;4978611;28;20426;-71
2023/08/28 02:59:45;;;;;;;11.37;5.60;;;;;;;;;;4976736;28;20450;-71
2023/08/28 03:02:11;;;;;;;11.07;5.40;;;;;;;;;;4976395;28;20439;-71
2023/08/28 03:04:37;;;;;;;11.63;5.13;;;;;;;;;;4976361;28;20425;-71
2023/08/28 03:07:03;;;;;;;6.63;4.97;;;;;;;;;;4976377;28;20491;-71
2023/08/28 03:09:29;;;;;;;7.07;4.90;;;;;;;;;;4975903;28;20988;-71
2023/08/28 03:11:56;;;;;;;9.20;5.03;;;;;;;;;;4976056;28;20777;-71
2023/08/28 03:14:22;;;;;;;9.10;5.13;;;;;;;;;;4975994;28;20519;-70
2023/08/28 03:16:48;;;;;;;6.47;5.13;;;;;;;;;;4976077;28;21021;-71
2023/08/28 03:19:13;;;;;;;9.40;5.40;;;;;;;;;;4975773;28;20428;-72
2023/08/28 03:21:43;;;;;;;7.27;4.80;;;;;;;;;;4976013;28;20824;-72
2023/08/28 03:24:08;;;;;;;14.50;6.10;;;;;;;;;;4975590;28;20439;-72
2023/08/28 03:26:34;;;;;;;7.77;4.87;;;;;;;;;;4975873;28;21010;-71
2023/08/28 03:29:01;;;;;;;11.40;6.80;;;;;;;;;;4973216;28;20439;-71
2023/08/28 03:31:27;;;;;;;10.53;5.50;;;;;;;;;;4974108;28;20514;-71
2023/08/28 03:33:53;;;;;;;5.17;4.20;;;;;;;;;;4974653;28;20898;-72
2023/08/28 03:36:19;;;;;;;8.50;5.27;;;;;;;;;;4975624;28;20416;-71
2023/08/28 03:38:45;;;;;;;6.77;5.07;;;;;;;;;;4974708;28;20416;-72
2023/08/28 03:41:11;;;;;;;7.97;5.07;;;;;;;;;;4973908;28;20436;-72
2023/08/28 03:43:37;;;;;;;10.23;4.20;;;;;;;;;;4975326;28;20448;-71
2023/08/28 03:46:03;;;;;;;8.20;4.03;;;;;;;;;;4975394;28;20408;-71
2023/08/28 03:48:29;;;;;;;7.33;4.20;;;;;;;;;;4975052;28;20416;-72
2023/08/28 03:50:55;;;;;;;5.70;3.93;;;;;;;;;;4975465;28;20428;-71
2023/08/28 03:53:21;;;;;;;7.13;4.73;;;;;;;;;;4975252;28;20537;-71
2023/08/28 03:55:48;;;;;;;7.80;5.47;;;;;;;;;;4975562;28;20404;-72
2023/08/28 03:58:14;;;;;;;11.53;3.87;;;;;;;;;;4975321;28;20404;-71
2023/08/28 04:00:40;;;;;;;7.13;4.80;;;;;;;;;;4975442;28;20506;-71
2023/08/28 04:03:06;;;;;;;8.23;4.50;;;;;;;;;;4975331;28;20548;-72
2023/08/28 04:05:32;;;;;;;7.63;4.40;;;;;;;;;;4985401;28;20431;-72
2023/08/28 04:07:58;;;;;;;5.47;3.80;;;;;;;;;;4987473;28;20464;-72
2023/08/28 04:10:25;;;;;;;9.40;3.70;;;;;;;;;;4985424;28;20432;-72
2023/08/28 04:12:51;;;;;;;5.60;3.70;;;;;;;;;;4983098;28;20849;-72
2023/08/28 04:15:17;;;;;;;12.33;3.20;;;;;;;;;;4976607;28;20420;-72
2023/08/28 04:17:43;;;;;;;5.57;3.90;;;;;;;;;;4977289;28;20419;-73
2023/08/28 04:20:13;;;;;;;4.57;3.50;;;;;;;;;;4975848;28;20801;-73
2023/08/28 04:22:45;;;;;;;11.80;4.70;;;;;;;;;;4976083;28;20999;-73
2023/08/28 04:25:11;;;;;;;9.17;3.93;;;;;;;;;;4975380;28;20415;-73
2023/08/28 04:27:38;;;;;;;8.00;3.50;;;;;;;;;;4975528;28;20459;-73
2023/08/28 04:30:05;;;;;;;4.50;3.73;;;;;;;;;;4975165;28;20423;-73
2023/08/28 04:32:31;;;;;;;10.10;4.00;;;;;;;;;;4974140;28;20491;-74
2023/08/28 04:34:56;;;;;;;7.20;3.57;;;;;;;;;;4976962;28;20813;-73
2023/08/28 04:37:26;;;;;;;9.27;3.87;;;;;;;;;;4976865;28;20419;-72
2023/08/28 04:39:52;;;;;;;4.93;3.53;;;;;;;;;;4975401;28;20712;-72
2023/08/28 04:42:18;;;;;;;11.53;3.80;;;;;;;;;;4975971;28;20442;-72
2023/08/28 04:44:44;;;;;;;6.53;4.10;;;;;;;;;;4975532;28;20414;-72
2023/08/28 04:47:10;;;;;;;7.87;4.43;;;;;;;;;;4975699;28;20538;-72
2023/08/28 04:49:36;;;;;;;9.07;3.87;;;;;;;;;;4974579;28;20412;-71
2023/08/28 04:52:03;;;;;;;7.43;3.67;;;;;;;;;;4974229;28;20724;-73
2023/08/28 04:54:29;;;;;;;5.20;3.43;;;;;;;;;;4974722;28;20408;-72
2023/08/28 04:56:56;;;;;;;4.57;3.73;;;;;;;;;;4974608;28;20420;-72
2023/08/28 04:59:22;;;;;;;3.63;3.03;;;;;;;;;;4974403;28;20427;-72
2023/08/28 05:01:48;;;;;;;5.50;3.60;;;;;;;;;;4973757;28;20428;-72
2023/08/28 05:04:14;;;;;;;9.80;4.57;;;;;;;;;;4974592;28;20605;-72
2023/08/28 05:06:40;;;;;;;6.30;4.40;;;;;;;;;;4973918;28;20522;-71
2023/08/28 05:09:06;;;;;;;6.10;4.40;;;;;;;;;;4973839;28;20418;-72
2023/08/28 05:11:32;;;;;;;6.87;3.83;;;;;;;;;;4973317;28;20424;-72
2023/08/28 05:13:58;;;;;;;6.93;4.13;;;;;;;;;;4978595;28;20440;-72
2023/08/28 05:16:24;;;;;;;8.47;3.33;;;;;;;;;;4978155;28;20427;-72
2023/08/28 05:18:50;;;;;;;8.47;3.57;;;;;;;;;;4975222;28;20420;-72
2023/08/28 05:21:16;;;;;;;7.73;4.60;;;;;;;;;;4973587;28;20948;-72
2023/08/28 05:23:42;;;;;;;8.87;4.77;;;;;;;;;;4973733;28;20447;-72
2023/08/28 05:26:08;;;;;;;7.83;5.00;;;;;;;;;;4973059;28;20797;-71
2023/08/28 05:28:38;;;;;;;25.20;6.20;;;;;;;;;;4971082;28;20422;-72
2023/08/28 05:31:04;;;;;;;8.57;5.07;;;;;;;;;;4964789;28;20910;-71
2023/08/28 05:33:38;;;;;;;10.77;5.70;;;;;;;;;;4969870;28;20430;-72
2023/08/28 05:36:04;;;;;;;9.23;5.57;;;;;;;;;;4973236;28;20470;-72
2023/08/28 05:38:30;;;;;;;13.77;6.70;;;;;;;;;;4973458;28;20420;-72
2023/08/28 05:40:56;;;;;;;11.07;6.60;;;;;;;;;;4972414;28;20419;-72
2023/08/28 05:43:22;;;;;;;11.20;6.80;;;;;;;;;;4973837;28;20475;-71
2023/08/28 05:45:48;;;;;;;12.60;7.30;;;;;;;;;;4973854;28;20396;-72
2023/08/28 05:48:14;;;;;;;10.73;6.30;;;;;;;;;;4972800;28;20444;-72
2023/08/28 05:50:44;;;;;;;15.80;6.57;;;;;;;;;;4973577;28;20444;-72
2023/08/28 05:53:10;;;;;;;13.37;5.70;;;;;;;;;;4972107;28;20609;-72
2023/08/28 05:55:36;;;;;;;9.20;6.10;;;;;;;;;;4973348;28;20498;-72
2023/08/28 05:58:02;;;;;;;8.90;6.03;;;;;;;;;;4972132;28;20477;-71
2023/08/28 06:00:29;;;;;;;7.30;5.13;;;;;;;;;;4973251;28;20437;-72
2023/08/28 06:02:55;;;;;;;9.67;5.23;;;;;;;;;;4973016;28;20432;-72
2023/08/28 06:05:21;;;;;;;8.90;4.83;;;;;;;;;;4973550;28;20426;-72
2023/08/28 06:07:47;;;;;;;6.67;4.90;;;;;;;;;;4972405;28;20588;-72
2023/08/28 06:10:17;;;;;;;11.13;5.03;;;;;;;;;;4972530;28;20452;-72
2023/08/28 06:12:43;;;;;;;10.20;5.20;;;;;;;;;;4972938;28;20435;-72
2023/08/28 06:15:10;;;;;;;10.97;5.37;;;;;;;;;;4972652;28;20834;-71
2023/08/28 06:17:36;;;;;;;11.23;5.20;;;;;;;;;;4972441;28;20929;-71
2023/08/28 06:20:04;;;;;;;8.27;4.63;;;;;;;;;;4972119;28;20454;-72
2023/08/28 06:22:30;;;;;;;9.10;5.20;;;;;;;;;;4972295;28;20470;-72
2023/08/28 06:24:56;;;;;;;6.73;5.10;;;;;;;;;;4972603;28;20466;-72
2023/08/28 06:27:22;;;;;;;7.27;6.20;;;;;;;;;;4972278;28;20571;-71
2023/08/28 06:29:48;;;;;;;5.70;5.30;;;;;;;;;;4972411;28;20411;-71
2023/08/28 06:32:14;;;;;;;15.47;7.40;;;;;;;;;;4975999;28;20478;-71
2023/08/28 06:34:40;;;;;;;15.93;7.83;;;;;;;;;;4976387;28;20435;-71
2023/08/28 06:37:06;;;;;;;14.30;8.50;;;;;;;;;;4974492;28;20490;-71
2023/08/28 06:39:32;;;;;;;13.57;7.90;;;;;;;;;;4975904;28;20434;-71
2023/08/28 06:41:58;;;;;;;13.67;7.93;;;;;;;;;;4976158;28;20419;-71
2023/08/28 06:44:24;;;;;;;21.50;8.40;;;;;;;;;;4976072;28;20411;-72
2023/08/28 06:46:50;;;;;;;12.60;7.70;;;;;;;;;;4974016;28;20541;-72
2023/08/28 06:49:16;;;;;;;16.10;8.80;;;;;;;;;;4975687;28;20534;-71
2023/08/28 06:51:42;;;;;;;13.33;8.73;;;;;;;;;;4975630;28;20754;-71
2023/08/28 06:54:09;;;;;;;14.87;7.47;;;;;;;;;;4975359;28;20424;-72
2023/08/28 06:56:35;;;;;;;11.70;7.53;;;;;;;;;;4962518;28;20436;-71
2023/08/28 06:59:01;;;;;;;15.57;8.40;;;;;;;;;;4975651;28;20419;-71
2023/08/28 07:01:27;;;;;;;13.63;8.13;;;;;;;;;;4975413;28;20495;-72
2023/08/28 07:03:53;;;;;;;16.40;8.40;;;;;;;;;;4957252;28;20962;-71
2023/08/28 07:06:19;;;;;;;12.30;7.90;;;;;;;;;;4956287;29;20877;-72
2023/08/28 07:08:45;;;;;;;11.87;7.80;;;;;;;;;;4955937;29;20903;-72
2023/08/28 07:11:11;;;;;;;12.37;8.60;;;;;;;;;;4956103;29;20414;-71
2023/08/28 07:13:37;;;;;;;14.90;8.37;;;;;;;;;;4973008;28;20949;-72
2023/08/28 07:16:03;;;;;;;11.27;7.53;;;;;;;;;;4971400;28;20926;-71
2023/08/28 07:18:29;;;;;;;10.00;6.87;;;;;;;;;;4965639;28;20432;-71
2023/08/28 07:20:55;;;;;;;10.60;6.80;;;;;;;;;;4975270;28;20408;-71
2023/08/28 07:23:22;;;;;;;11.20;6.60;;;;;;;;;;4974487;28;20487;-71
2023/08/28 07:25:48;;;;;;;8.10;5.67;;;;;;;;;;4964546;28;20844;-71
2023/08/28 07:28:14;;;;;;;17.60;6.63;;;;;;;;;;4975174;28;20471;-70
2023/08/28 07:30:41;;;;;;;11.67;7.60;;;;;;;;;;4972373;28;20439;-71
2023/08/28 07:33:08;;;;;;;9.93;6.80;;;;;;;;;;4967388;28;20451;-71
2023/08/28 07:35:36;;;;;;;14.57;6.40;;;;;;;;;;4973741;28;20798;-72
2023/08/28 07:38:06;;;;;;;11.13;6.37;;;;;;;;;;4974602;28;20440;-71
2023/08/28 07:40:32;;;;;;;11.57;6.60;;;;;;;;;;4974117;28;20419;-71
2023/08/28 07:42:59;;;;;;;10.50;6.40;;;;;;;;;;4973727;28;20435;-71
2023/08/28 07:45:25;;;;;;;12.30;7.10;;;;;;;;;;4974389;28;20427;-71
2023/08/28 07:47:51;;;;;;;11.13;6.50;;;;;;;;;;4972708;28;20828;-72
2023/08/28 07:50:17;;;;;;;11.53;7.13;;;;;;;;;;4955520;29;20475;-72
2023/08/28 07:52:43;;;;;;;7.43;6.13;;;;;;;;;;4955433;29;20441;-72
2023/08/28 07:55:09;;;;;;;8.07;6.40;;;;;;;;;;4968008;28;20430;-72
2023/08/28 07:57:35;;;;;;;9.80;6.20;;;;;;;;;;4974429;28;20435;-72
2023/08/28 08:00:06;;;;;;;11.60;6.57;;;;;;;;;;4974384;28;20805;-72
2023/08/28 08:02:32;;;;;;;7.40;5.93;;;;;;;;;;4974493;28;20435;-71
2023/08/28 08:04:59;;;;;;;9.37;6.07;;;;;;;;;;4971968;28;20436;-71
2023/08/28 08:07:25;;;;;;;6.53;5.10;;;;;;;;;;4974834;28;20964;-72
2023/08/28 08:09:51;;;;;;;6.50;4.97;;;;;;;;;;4974243;28;20411;-72
2023/08/28 08:12:17;;;;;;;12.03;5.40;;;;;;;;;;4974358;28;20459;-72
2023/08/28 08:14:42;;;;;;;8.30;5.73;;;;;;;;;;4974060;28;20424;-72
2023/08/28 08:17:09;;;;;;;7.23;4.50;;;;;;;;;;4973763;28;20467;-72
2023/08/28 08:19:35;;;;;;;5.97;4.70;;;;;;;;;;4973933;28;20461;-72
2023/08/28 08:22:02;;;;;;;7.80;4.67;;;;;;;;;;4974117;28;20431;-72
2023/08/28 08:24:28;;;;;;;5.93;3.77;;;;;;;;;;4974563;28;20431;-72
2023/08/28 08:26:55;;;;;;;11.57;4.67;;;;;;;;;;4974561;28;20456;-72
2023/08/28 08:29:22;;;;;;;7.13;4.23;;;;;;;;;;4973998;28;20408;-72
2023/08/28 08:31:48;;;;;;;7.97;4.70;;;;;;;;;;4973864;28;20427;-72
2023/08/28 08:34:14;;;;;;;8.00;4.17;;;;;;;;;;4972519;28;20472;-72
2023/08/28 08:36:40;;;;;;;6.13;3.87;;;;;;;;;;4974353;28;20478;-72
2023/08/28 08:39:06;;;;;;;6.83;3.80;;;;;;;;;;4973768;28;20419;-72
2023/08/28 08:41:32;;;;;;;5.63;3.93;;;;;;;;;;4973463;28;20463;-72
2023/08/28 08:43:58;;;;;;;4.93;4.40;;;;;;;;;;4973268;28;20456;-72
2023/08/28 08:46:25;;;;;;;6.93;3.67;;;;;;;;;;4973488;28;20468;-72
2023/08/28 08:48:54;;;;;;;3.93;3.47;;;;;;;;;;4973415;28;20474;-73
2023/08/28 08:51:20;;;;;;;5.80;3.43;;;;;;;;;;4973407;28;20419;-72
2023/08/28 08:53:55;;;;;;;7.70;3.70;;;;;;;;;;4973506;28;20424;-72
2023/08/28 08:56:23;;;;;;;6.20;4.00;;;;;;;;;;4972351;28;20427;-72
2023/08/28 08:58:50;;;;;;;6.33;3.43;;;;;;;;;;4973439;28;20412;-72
2023/08/28 09:01:17;;;;;;;5.57;2.90;;;;;;;;;;4972610;28;20519;-73
2023/08/28 09:03:43;;;;;;;4.90;3.37;;;;;;;;;;4974672;28;20494;-73
2023/08/28 09:06:09;;;;;;;7.40;3.70;;;;;;;;;;4979683;28;20448;-72
2023/08/28 09:08:36;;;;;;;5.20;3.27;;;;;;;;;;4981469;28;20502;-72
2023/08/28 09:11:04;;;;;;;7.20;2.90;;;;;;;;;;4975116;28;20424;-72
2023/08/28 09:13:30;;;;;;;4.93;3.17;;;;;;;;;;4973697;28;20956;-72
2023/08/28 09:15:56;;;;;;;9.57;3.17;;;;;;;;;;4974329;28;20466;-72
2023/08/28 09:18:25;;;;;;;8.33;3.20;;;;;;;;;;4973537;28;20510;-70
2023/08/28 09:21:07;;;;;;;6.33;3.20;;;;;;;;;;4971370;28;20433;-73
2023/08/28 09:23:33;;;;;;;5.00;3.60;;;;;;;;;;4972996;28;20679;-70
2023/08/28 09:25:59;;;;;;;11.10;3.33;;;;;;;;;;4973075;28;20533;-70
2023/08/28 09:28:25;;;;;;;3.97;2.93;;;;;;;;;;4973197;28;20408;-70
2023/08/28 09:30:51;;;;;;;7.43;3.50;;;;;;;;;;4970677;28;20448;-70
2023/08/28 09:33:17;;;;;;;13.23;3.30;;;;;;;;;;4973094;28;20789;-70
2023/08/28 09:35:44;;;;;;;2.90;2.70;;;;;;;;;;4977284;28;20400;-70
2023/08/28 09:38:10;;;;;;;6.50;3.50;;;;;;;;;;4981480;28;20451;-71
2023/08/28 09:40:38;;;;;;;3.87;2.60;;;;;;;;;;5000551;28;20467;-70
2023/08/28 09:43:15;;;;;;;3.27;2.30;;;;;;;;;;4985607;28;20502;-70
2023/08/28 09:45:41;;;;;;;4.43;2.87;;;;;;;;;;4984526;28;20434;-70
2023/08/28 09:48:07;;;;;;;7.10;3.10;;;;;;;;;;4980327;28;20463;-70
2023/08/28 09:50:35;;;;;;;4.80;2.90;;;;;;;;;;4979141;28;20443;-70
2023/08/28 09:53:11;;;;;;;3.37;2.27;;;;;;;;;;4978018;28;20444;-70
2023/08/28 09:55:38;;;;;;;5.20;2.87;;;;;;;;;;4979158;28;20893;-70
2023/08/28 09:58:11;;;;;;;5.03;2.20;;;;;;;;;;4978359;28;20418;-70
2023/08/28 10:00:39;;;;;;;3.93;2.23;;;;;;;;;;4977978;28;20416;-70
2023/08/28 10:03:05;;;;;;;2.90;1.80;;;;;;;;;;4978629;28;21005;-70
2023/08/28 10:05:33;;;;;;;6.27;2.40;;;;;;;;;;4978058;28;20419;-69
2023/08/28 10:08:02;;;;;;;6.47;2.40;;;;;;;;;;4981412;28;20456;-70
2023/08/28 10:10:29;;;;;;;3.23;2.43;;;;;;;;;;4981298;28;20408;-70
2023/08/28 10:12:55;;;;;;;4.57;2.07;;;;;;;;;;4981586;28;20443;-69
2023/08/28 10:15:22;;;;;;;4.60;2.50;;;;;;;;;;4981365;28;20481;-69
2023/08/28 10:17:48;;;;;;;4.67;2.00;;;;;;;;;;4979614;28;20427;-70
2023/08/28 10:20:14;;;;;;;6.10;2.50;;;;;;;;;;4976845;28;20588;-70
2023/08/28 10:22:41;;;;;;;4.20;2.17;;;;;;;;;;4976485;28;20463;-70
2023/08/28 10:25:07;;;;;;;3.03;2.00;;;;;;;;;;4976835;28;20412;-69
2023/08/28 10:27:33;;;;;;;5.33;2.10;;;;;;;;;;4976446;28;20554;-70
2023/08/28 10:30:00;;;;;;;5.33;2.30;;;;;;;;;;4976778;28;20407;-69
2023/08/28 10:32:26;;;;;;;4.90;2.07;;;;;;;;;;4978567;28;20452;-69
2023/08/28 10:34:52;;;;;;;3.57;2.20;;;;;;;;;;4979991;28;20499;-69
2023/08/28 10:37:18;;;;;;;2.37;1.87;;;;;;;;;;4977541;28;20864;-70
2023/08/28 10:39:44;;;;;;;4.53;2.00;;;;;;;;;;4979668;28;20787;-70
2023/08/28 10:42:12;;;;;;;4.67;2.33;;;;;;;;;;4980284;28;20463;-70
2023/08/28 10:44:39;;;;;;;3.97;2.07;;;;;;;;;;4961319;28;20432;-70
2023/08/28 10:47:05;;;;;;;2.37;1.80;;;;;;;;;;4957474;28;20468;-70
2023/08/28 10:49:33;;;;;;;4.47;2.37;;;;;;;;;;4957191;28;20499;-70
2023/08/28 10:52:05;;;;;;;4.10;2.50;;;;;;;;;;4967801;28;20904;-70
2023/08/28 10:54:37;;;;;;;3.80;1.93;;;;;;;;;;4975730;28;20518;-70
2023/08/28 10:57:10;;;;;;;3.60;1.80;;;;;;;;;;4958302;28;20503;-70
2023/08/28 10:59:43;;;;;;;1.87;1.83;;;;;;;;;;4956588;28;20873;-70
2023/08/28 11:02:09;;;;;;;3.83;2.47;;;;;;;;;;4956637;28;20969;-70
2023/08/28 11:04:36;;;;;;;2.97;1.90;;;;;;;;;;4971137;28;20432;-70
2023/08/28 11:07:02;;;;;;;2.40;1.87;;;;;;;;;;4968787;28;20987;-69
2023/08/28 11:09:28;;;;;;;5.93;2.00;;;;;;;;;;4974128;28;20420;-69
2023/08/28 11:12:15;;;;;;;3.53;1.90;;;;;;;;;;4975512;28;20423;-70
2023/08/28 11:14:41;;;;;;;3.40;1.70;;;;;;;;;;4968870;28;20455;-70
2023/08/28 11:17:10;;;;;;;3.27;1.77;;;;;;;;;;4973920;28;20463;-68
2023/08/28 11:19:59;;;;;;;5.13;2.37;;;;;;;;;;4965887;28;20432;-70
2023/08/28 11:22:34;;;;;;;4.40;2.07;;;;;;;;;;4975204;28;20459;-71
2023/08/28 11:25:00;;;;;;;3.37;2.10;;;;;;;;;;4974732;28;20419;-70
2023/08/28 11:27:43;;;;;;;3.10;2.33;;;;;;;;;;4975103;28;20481;-70
2023/08/28 11:30:10;;;;;;;2.87;1.90;;;;;;;;;;4963730;28;20436;-70
2023/08/28 11:32:36;;;;;;;3.90;1.90;;;;;;;;;;4955834;29;20793;-70
2023/08/28 11:35:07;;;;;;;6.83;2.40;;;;;;;;;;4957232;28;20413;-70
2023/08/28 11:37:34;;;;;;;3.80;2.50;;;;;;;;;;4974922;28;20428;-70
2023/08/28 11:40:00;;;;;;;3.53;1.90;;;;;;;;;;4974901;28;20420;-70
2023/08/28 11:42:29;;;;;;;3.57;2.10;;;;;;;;;;4974850;28;20442;-70
2023/08/28 11:44:55;;;;;;;3.17;1.90;;;;;;;;;;4974612;28;20444;-70
2023/08/28 11:47:28;;;;;;;3.30;1.77;;;;;;;;;;4974159;28;20503;-70
2023/08/28 11:49:56;;;;;;;6.83;2.30;;;;;;;;;;4963157;28;20531;-71
2023/08/28 11:52:22;;;;;;;2.33;2.00;;;;;;;;;;4973209;28;20591;-72
2023/08/28 11:54:48;;;;;;;9.00;2.30;;;;;;;;;;4975217;28;20511;-71
2023/08/28 11:57:18;;;;;;;3.23;2.13;;;;;;;;;;4974822;28;20420;-71
2023/08/28 11:59:44;;;;;;;2.70;2.13;;;;;;;;;;4974222;28;20510;-71
2023/08/28 12:02:13;;;;;;;5.63;2.07;;;;;;;;;;4974444;28;20431;-70
2023/08/28 12:04:40;;;;;;;3.37;2.27;;;;;;;;;;4974527;28;20444;-70
2023/08/28 12:07:16;;;;;;;2.67;1.93;;;;;;;;;;4974270;28;20468;-71
2023/08/28 12:09:42;;;;;;;4.60;2.40;;;;;;;;;;4972283;28;20450;-71
2023/08/28 12:12:08;;;;;;;2.83;2.13;;;;;;;;;;4967831;28;20816;-71
2023/08/28 12:14:34;;;;;;;3.70;1.83;;;;;;;;;;4974231;28;20411;-71
2023/08/28 12:17:00;;;;;;;3.37;1.93;;;;;;;;;;4972664;28;20805;-71
2023/08/28 12:19:26;;;;;;;3.10;2.10;;;;;;;;;;4973832;28;20437;-70
2023/08/28 12:21:52;;;;;;;3.00;2.33;;;;;;;;;;4973793;28;20416;-68
2023/08/28 12:24:18;;;;;;;4.40;2.20;;;;;;;;;;4974382;28;20423;-69
2023/08/28 12:26:44;;;;;;;4.23;2.30;;;;;;;;;;4973593;28;20618;-71
2023/08/28 12:29:10;;;;;;;3.67;1.90;;;;;;;;;;4971603;28;20432;-69
2023/08/28 12:31:37;;;;;;;3.00;2.10;;;;;;;;;;4965767;28;20416;-69
2023/08/28 12:34:11;;;;;;;5.43;1.93;;;;;;;;;;4973954;28;20424;-69
2023/08/28 12:36:38;;;;;;;12.80;2.27;;;;;;;;;;4973812;28;20414;-69
2023/08/28 12:39:05;;;;;;;6.40;2.57;;;;;;;;;;4965122;28;20804;-69
2023/08/28 12:41:35;;;;;;;2.43;2.10;;;;;;;;;;4970968;28;20425;-69
2023/08/28 12:44:01;;;;;;;6.90;2.33;;;;;;;;;;4965989;28;20455;-72
2023/08/28 12:46:27;;;;;;;7.27;2.20;;;;;;;;;;4973797;28;20786;-69
2023/08/28 12:48:54;;;;;;;2.90;2.07;;;;;;;;;;4973217;28;20427;-74
2023/08/28 12:51:21;;;;;;;9.63;2.67;;;;;;;;;;4973636;28;20872;-72
2023/08/28 12:53:47;;;;;;;4.63;2.40;;;;;;;;;;4973685;28;20435;-71
2023/08/28 12:56:13;;;;;;;2.33;1.90;;;;;;;;;;4973735;28;20420;-71
2023/08/28 12:58:39;;;;;;;3.90;2.23;;;;;;;;;;4972520;28;20527;-70
2023/08/28 13:01:06;;;;;;;4.53;2.17;;;;;;;;;;4972846;28;20431;-69
2023/08/28 13:03:36;;;;;;;3.40;2.47;;;;;;;;;;4972941;28;20424;-71
2023/08/28 13:06:02;;;;;;;3.80;2.53;;;;;;;;;;4973019;28;20470;-72
2023/08/28 13:08:28;;;;;;;2.77;2.30;;;;;;;;;;4975127;28;20606;-72
2023/08/28 13:10:54;;;;;;;5.53;2.00;;;;;;;;;;4973586;28;20929;-73
2023/08/28 13:13:23;;;;;;;4.83;2.53;;;;;;;;;;4973987;28;20435;-73
2023/08/28 13:15:50;;;;;;;2.97;2.00;;;;;;;;;;4973582;28;20495;-73
2023/08/28 13:18:15;;;;;;;2.97;2.00;;;;;;;;;;4972978;28;20442;-73
2023/08/28 13:20:41;;;;;;;7.10;2.03;;;;;;;;;;4973097;28;20415;-72
2023/08/28 13:23:07;;;;;;;2.40;2.10;;;;;;;;;;4973245;28;20557;-75
2023/08/28 13:25:33;;;;;;;2.40;2.20;;;;;;;;;;4973623;28;20483;-73
2023/08/28 13:27:59;;;;;;;6.43;2.33;;;;;;;;;;4972513;28;20467;-74
2023/08/28 13:30:25;;;;;;;6.93;2.47;;;;;;;;;;4968038;28;20423;-73
2023/08/28 13:32:51;;;;;;;4.43;2.43;;;;;;;;;;4973557;28;20435;-72
2023/08/28 13:35:17;;;;;;;5.20;1.90;;;;;;;;;;4973004;28;20407;-75
2023/08/28 13:37:43;;;;;;;1.83;1.73;;;;;;;;;;4972715;28;20494;-73
2023/08/28 13:40:10;;;;;;;2.43;1.80;;;;;;;;;;4974259;28;20437;-75
2023/08/28 13:42:36;;;;;;;3.87;2.13;;;;;;;;;;4976118;28;20443;-73
2023/08/28 13:45:02;;;;;;;3.47;1.73;;;;;;;;;;4976189;28;20419;-73
2023/08/28 13:47:29;;;;;;;2.07;1.60;;;;;;;;;;4977059;28;20467;-72
2023/08/28 13:49:55;;;;;;;3.90;2.07;;;;;;;;;;4968893;28;20901;-73
2023/08/28 13:52:21;;;;;;;2.70;1.90;;;;;;;;;;4975909;28;20537;-74
2023/08/28 13:54:46;;;;;;;2.47;1.90;;;;;;;;;;4976756;28;20430;-72
2023/08/28 13:57:12;;;;;;;1.83;1.30;;;;;;;;;;4977976;28;20498;-72
2023/08/28 13:59:38;;;;;;;2.53;1.90;;;;;;;;;;4976692;28;20427;-72
2023/08/28 14:02:04;;;;;;;2.50;1.50;;;;;;;;;;4976508;28;20478;-73
2023/08/28 14:04:33;;;;;;;7.13;2.70;;;;;;;;;;4976626;28;20408;-72
2023/08/28 14:06:59;;;;;;;5.63;2.00;;;;;;;;;;4976803;28;20459;-72
2023/08/28 14:09:25;;;;;;;4.93;1.83;;;;;;;;;;4968425;28;20496;-71
2023/08/28 14:11:51;;;;;;;3.27;1.90;;;;;;;;;;4976185;28;20427;-72
2023/08/28 14:14:17;;;;;;;3.00;1.90;;;;;;;;;;4977558;28;20417;-73
2023/08/28 14:16:43;;;;;;;2.83;2.10;;;;;;;;;;4977843;28;20411;-74
2023/08/28 14:19:09;;;;;;;2.30;1.87;;;;;;;;;;4976665;28;20462;-74
2023/08/28 14:21:35;;;;;;;6.27;1.90;;;;;;;;;;4976850;28;20412;-73
2023/08/28 14:24:01;;;;;;;2.23;1.50;;;;;;;;;;4976426;28;20455;-73
2023/08/28 14:26:29;;;;;;;7.53;1.93;;;;;;;;;;4976916;28;20478;-74
2023/08/28 14:28:55;;;;;;;3.03;1.90;;;;;;;;;;4976224;28;20427;-74
2023/08/28 14:31:20;;;;;;;3.43;1.70;;;;;;;;;;4977102;28;20419;-74
2023/08/28 14:33:46;;;;;;;1.97;1.53;;;;;;;;;;4976522;28;20459;-74
2023/08/28 14:36:12;;;;;;;3.67;2.20;;;;;;;;;;4975171;28;20414;-74
2023/08/28 14:38:38;;;;;;;17.73;2.23;;;;;;;;;;4976042;28;20424;-74